Time;durP1;ratioP1;P1;durP2;ratioP2;P2;SDS_P1;SDS_P2;PMS_P1;PMS_P2;Temp;Humidity;BMP_temperature;BMP_pressure;BME280_temperature;BME280_humidity;BME280_pressure;Samples;Min_cycle;Max_cycle;Signal;HPM_P1;HPM_P2
2022/11/20 00:01:12;;;;;;;76.30;33.60;;;;;;;-5.23;84.57;98150.06;102883;1284;25475;-72
2022/11/20 00:03:41;;;;;;;77.30;36.80;;;;;;;-5.24;84.05;98157.38;102865;1289;137424;-72
2022/11/20 00:06:12;;;;;;;73.60;33.90;;;;;;;-5.23;84.43;98159.98;102803;1312;25383;-73
2022/11/20 00:08:40;;;;;;;71.70;33.70;;;;;;;-5.21;84.45;98156.15;102663;1311;137866;-72
2022/11/20 00:11:10;;;;;;;71.90;33.40;;;;;;;-5.17;84.52;98157.05;103057;1310;22469;-72
2022/11/20 00:13:37;;;;;;;74.30;34.40;;;;;;;-5.19;84.35;98156.36;103016;1288;22560;-73
2022/11/20 00:16:06;;;;;;;70.40;33.10;;;;;;;-5.20;84.47;98149.91;102886;1289;138102;-72
2022/11/20 00:18:34;;;;;;;71.10;34.70;;;;;;;-5.22;84.74;98146.09;103000;1295;22503;-72
2022/11/20 00:21:13;;;;;;;80.10;38.30;;;;;;;-5.27;84.13;98139.61;102713;1312;137573;-73
2022/11/20 00:23:41;;;;;;;79.70;36.00;;;;;;;-5.28;84.18;98142.27;102966;1283;24314;-72
2022/11/20 00:26:11;;;;;;;75.20;36.60;;;;;;;-5.29;84.37;98143.34;102832;1290;138060;-72
2022/11/20 00:28:38;;;;;;;72.20;33.90;;;;;;;-5.27;84.19;98142.16;102714;1290;22477;-73
2022/11/20 00:31:13;;;;;;;80.40;35.00;;;;;;;-5.28;84.60;98136.53;102874;1308;22483;-73
2022/11/20 00:33:41;;;;;;;75.00;35.50;;;;;;;-5.28;84.09;98133.05;102898;1304;137255;-72
2022/11/20 00:36:20;;;;;;;78.20;35.10;;;;;;;-5.33;84.26;98134.38;102986;1310;22471;-72
2022/11/20 00:38:52;;;;;;;78.60;36.40;;;;;;;-5.35;84.51;98143.23;102714;1310;138021;-72
2022/11/20 00:41:19;;;;;;;74.80;35.10;;;;;;;-5.35;84.28;98143.39;102822;1312;24402;-72
2022/11/20 00:43:46;;;;;;;73.40;33.10;;;;;;;-5.32;84.38;98142.27;102799;1312;26168;-72
2022/11/20 00:46:16;;;;;;;72.30;33.80;;;;;;;-5.29;84.49;98135.97;102782;1296;137224;-72
2022/11/20 00:48:44;;;;;;;74.20;34.20;;;;;;;-5.27;84.68;98136.44;102937;1297;25362;-72
2022/11/20 00:51:13;;;;;;;73.60;32.50;;;;;;;-5.24;84.74;98139.13;102724;1291;137231;-72
2022/11/20 00:53:40;;;;;;;75.20;36.50;;;;;;;-5.22;84.43;98139.30;102948;1291;22492;-73
2022/11/20 00:56:11;;;;;;;75.00;35.20;;;;;;;-5.22;84.61;98135.77;102829;1291;137570;-72
2022/11/20 00:58:40;;;;;;;76.40;36.40;;;;;;;-5.21;84.63;98129.02;102680;1306;25475;-73
2022/11/20 01:01:20;;;;;;;74.00;34.00;;;;;;;-5.20;84.51;98124.02;102971;1293;25356;-73
2022/11/20 01:03:49;;;;;;;71.60;34.40;;;;;;;-5.18;84.72;98113.44;102846;1312;137257;-72
2022/11/20 01:06:18;;;;;;;74.30;34.20;;;;;;;-5.17;85.12;98117.06;103031;1295;22472;-72
2022/11/20 01:08:46;;;;;;;77.20;34.30;;;;;;;-5.18;84.71;98116.26;102814;1299;137519;-72
2022/11/20 01:11:19;;;;;;;70.70;34.90;;;;;;;-5.21;84.24;98113.77;102909;1298;25266;-72
2022/11/20 01:13:49;;;;;;;73.60;36.00;;;;;;;-5.26;84.22;98114.61;102844;1291;25322;-72
2022/11/20 01:16:20;;;;;;;70.00;35.90;;;;;;;-5.30;84.33;98118.71;102862;1291;138732;-72
2022/11/20 01:18:49;;;;;;;72.40;34.60;;;;;;;-5.32;84.07;98122.77;102791;1306;22933;-72
2022/11/20 01:21:23;;;;;;;70.30;32.80;;;;;;;-5.30;84.79;98112.30;102665;1284;138185;-72
2022/11/20 01:23:51;;;;;;;76.60;33.90;;;;;;;-5.29;84.57;98109.27;102966;1299;22482;-72
2022/11/20 01:26:21;;;;;;;79.50;34.80;;;;;;;-5.30;84.50;98107.97;102843;1292;138209;-71
2022/11/20 01:28:49;;;;;;;75.20;35.20;;;;;;;-5.32;84.40;98099.09;103035;1289;22507;-72
2022/11/20 01:31:18;;;;;;;76.30;35.30;;;;;;;-5.36;84.38;98102.61;102854;1295;23499;-72
2022/11/20 01:33:46;;;;;;;;;;;;;;;-5.38;83.98;98099.48;102922;1291;138112;-72
2022/11/20 01:36:14;;;;;;;65.40;31.50;;;;;;;-5.38;84.36;98095.56;102524;1303;22492;-71
2022/11/20 01:38:41;;;;;;;73.50;31.80;;;;;;;-5.39;84.25;98096.91;102672;1297;138659;-72
2022/11/20 01:43:20;;;;;;;75.70;32.90;;;;;;;-5.41;84.63;98101.71;102968;1307;22610;-72
2022/11/20 01:43:59;;;;;;;70.60;31.80;;;;;;;-5.40;84.68;98105.56;102931;1295;25963;-72
2022/11/20 01:46:26;;;;;;;76.20;33.00;;;;;;;-5.38;85.09;98099.67;102890;1289;137460;-72
2022/11/20 01:49:15;;;;;;;71.30;33.20;;;;;;;-5.37;84.73;98094.80;103005;1289;22475;-71
2022/11/20 01:51:48;;;;;;;67.00;31.20;;;;;;;-5.37;84.88;98089.30;102531;1290;140303;-72
2022/11/20 01:54:19;;;;;;;60.60;31.40;;;;;;;-5.35;84.72;98092.14;102511;1314;22475;-72
2022/11/20 01:56:53;;;;;;;66.70;30.50;;;;;;;-5.32;84.78;98099.48;102631;1291;137377;-72
2022/11/20 01:59:21;;;;;;;65.00;31.40;;;;;;;-5.30;85.01;98102.83;102898;1296;25218;-72
2022/11/20 02:01:49;;;;;;;66.10;31.90;;;;;;;-5.31;84.76;98096.15;103016;1294;24193;-72
2022/11/20 02:04:16;;;;;;;70.60;33.00;;;;;;;-5.32;84.83;98097.34;102961;1298;138773;-72
2022/11/20 02:06:55;;;;;;;76.90;34.40;;;;;;;-5.31;84.72;98100.45;103051;1294;22481;-72
2022/11/20 02:09:22;;;;;;;70.00;32.60;;;;;;;-5.30;84.61;98099.95;102885;1303;137893;-72
2022/11/20 02:11:49;;;;;;;67.90;31.60;;;;;;;-5.29;84.33;98097.36;102993;1288;22496;-72
2022/11/20 02:14:16;;;;;;;55.50;28.00;;;;;;;-5.30;84.33;98098.70;102890;1313;137455;-72
2022/11/20 02:16:48;;;;;;;62.50;30.30;;;;;;;-5.32;84.57;98100.49;102941;1313;22484;-72
2022/11/20 02:19:28;;;;;;;67.00;29.80;;;;;;;-5.32;84.49;98106.21;103001;1289;25374;-72
2022/11/20 02:22:12;;;;;;;65.10;31.70;;;;;;;-5.35;84.24;98110.71;102755;1305;137616;-72
2022/11/20 02:24:43;;;;;;;64.60;32.00;;;;;;;-5.34;84.06;98111.88;102776;1313;22479;-72
2022/11/20 02:27:13;;;;;;;59.90;28.90;;;;;;;-5.32;84.37;98112.55;102762;1291;139192;-72
2022/11/20 02:29:50;;;;;;;65.50;30.50;;;;;;;-5.31;84.41;98115.33;102755;1307;22494;-72
2022/11/20 02:32:23;;;;;;;73.20;31.20;;;;;;;-5.35;84.14;98114.36;102876;1297;137527;-72
2022/11/20 02:34:50;;;;;;;63.10;28.20;;;;;;;-5.37;83.99;98113.23;102860;1290;25552;-72
2022/11/20 02:37:19;;;;;;;64.40;29.30;;;;;;;-5.42;83.53;98111.39;103004;1301;24267;-72
2022/11/20 02:39:48;;;;;;;68.00;31.00;;;;;;;-5.49;83.97;98111.92;102960;1297;137415;-72
2022/11/20 02:42:15;;;;;;;67.90;32.80;;;;;;;-5.57;83.23;98111.48;103133;1292;22470;-72
2022/11/20 02:44:42;;;;;;;66.10;33.00;;;;;;;-5.65;83.46;98111.86;102988;1310;137848;-72
2022/11/20 02:47:10;;;;;;;77.80;33.80;;;;;;;-5.70;83.55;98113.27;103016;1311;22494;-73
2022/11/20 02:49:37;;;;;;;69.60;32.30;;;;;;;-5.77;83.55;98114.83;102998;1305;22610;-72
2022/11/20 02:52:04;;;;;;;70.00;31.70;;;;;;;-5.79;83.72;98113.80;102736;1312;137259;-72
2022/11/20 02:54:30;;;;;;;65.10;31.20;;;;;;;-5.78;84.14;98112.83;102912;1312;24246;-72
2022/11/20 02:56:57;;;;;;;70.00;32.20;;;;;;;-5.77;84.25;98111.77;102488;1312;137987;-72
2022/11/20 02:59:24;;;;;;;72.00;35.60;;;;;;;-5.77;84.13;98109.85;102855;1311;24375;-72
2022/11/20 03:01:51;;;;;;;64.70;32.30;;;;;;;-5.76;84.44;98109.39;102860;1289;25203;-72
2022/11/20 03:04:18;;;;;;;65.30;30.90;;;;;;;-5.75;84.19;98103.54;102804;1289;137877;-72
2022/11/20 03:06:45;;;;;;;66.20;30.80;;;;;;;-5.76;84.13;98099.86;103550;1288;23914;-73
2022/11/20 03:09:12;;;;;;;67.00;31.50;;;;;;;-5.74;84.27;98100.27;102872;1295;137252;-72
2022/11/20 03:11:39;;;;;;;74.00;33.20;;;;;;;-5.74;84.15;98099.68;102986;1290;24272;-73
2022/11/20 03:14:06;;;;;;;65.70;31.10;;;;;;;-5.74;83.99;98100.38;102968;1312;22496;-72
2022/11/20 03:16:33;;;;;;;65.20;33.00;;;;;;;-5.75;84.17;98094.98;102561;1305;137272;-72
2022/11/20 03:19:00;;;;;;;72.70;33.50;;;;;;;-5.77;83.61;98100.33;102907;1288;24259;-72
2022/11/20 03:21:27;;;;;;;61.10;32.10;;;;;;;-5.79;83.47;98101.25;102871;1303;137970;-72
2022/11/20 03:23:54;;;;;;;64.20;30.80;;;;;;;-5.82;83.34;98098.20;103161;1291;22477;-72
2022/11/20 03:26:24;;;;;;;77.20;33.50;;;;;;;-5.85;83.62;98097.20;102991;1313;137447;-73
2022/11/20 03:29:00;;;;;;;73.60;33.10;;;;;;;-5.86;84.26;98093.48;103029;1302;22485;-72
2022/11/20 03:31:29;;;;;;;72.00;30.90;;;;;;;-5.88;83.84;98092.17;103023;1311;22483;-73
2022/11/20 03:33:58;;;;;;;73.10;32.20;;;;;;;-5.89;83.84;98091.08;102616;1313;137448;-73
2022/11/20 03:36:26;;;;;;;74.30;32.80;;;;;;;-5.88;84.08;98089.42;103134;1288;23391;-72
2022/11/20 03:38:55;;;;;;;63.00;30.30;;;;;;;-5.86;84.32;98087.95;102967;1294;138090;-72
2022/11/20 03:41:26;;;;;;;69.00;30.00;;;;;;;-5.84;84.01;98088.30;102974;1297;22478;-72
2022/11/20 03:43:58;;;;;;;71.30;32.90;;;;;;;-5.83;83.96;98086.42;103155;1298;22549;-72
2022/11/20 03:46:26;;;;;;;67.80;31.70;;;;;;;-5.82;84.48;98085.21;103029;1310;137403;-72
2022/11/20 03:48:54;;;;;;;74.20;33.90;;;;;;;-5.81;84.63;98081.47;103047;1310;22659;-72
2022/11/20 03:51:27;;;;;;;78.20;35.60;;;;;;;-5.81;84.03;98077.98;103003;1295;137692;-72
2022/11/20 03:53:56;;;;;;;73.10;34.30;;;;;;;-5.82;84.41;98081.52;103126;1309;24252;-72
2022/11/20 03:56:26;;;;;;;64.80;32.90;;;;;;;-5.81;84.09;98083.02;102969;1288;138208;-72
2022/11/20 03:58:53;;;;;;;70.50;31.70;;;;;;;-5.81;83.91;98076.83;102855;1291;24193;-72
2022/11/20 04:01:24;;;;;;;75.30;34.80;;;;;;;-5.79;84.37;98078.41;103064;1291;22486;-72
2022/11/20 04:03:53;;;;;;;71.20;32.80;;;;;;;-5.78;84.11;98075.98;103040;1292;137268;-72
2022/11/20 04:06:22;;;;;;;74.20;34.20;;;;;;;-5.78;84.52;98074.26;103039;1288;22334;-73
2022/11/20 04:08:50;;;;;;;76.30;37.90;;;;;;;-5.78;84.29;98078.88;103004;1302;138252;-72
2022/11/20 04:11:19;;;;;;;72.90;37.40;;;;;;;-5.78;83.88;98079.05;103087;1301;25241;-72
2022/11/20 04:13:48;;;;;;;;;;;;;;;-5.77;83.97;98081.07;103090;1289;24250;-72
2022/11/20 04:16:16;;;;;;;72.70;31.90;;;;;;;-5.76;84.32;98085.39;102998;1291;123488;-72
2022/11/20 04:18:43;;;;;;;78.40;35.00;;;;;;;-5.78;83.88;98078.35;103171;1297;22481;-72
2022/11/20 04:21:11;;;;;;;75.90;34.90;;;;;;;-5.80;84.76;98073.53;102771;1297;137271;-72
2022/11/20 04:23:38;;;;;;;76.20;35.20;;;;;;;-5.80;84.63;98075.02;103413;1294;22593;-72
2022/11/20 04:26:10;;;;;;;82.40;38.00;;;;;;;-5.80;84.73;98066.56;103093;1298;22480;-72
2022/11/20 04:28:38;;;;;;;73.70;36.70;;;;;;;-5.80;84.34;98066.36;103143;1289;138050;-73
2022/11/20 04:31:10;;;;;;;76.80;35.90;;;;;;;-5.80;84.35;98067.36;103040;1295;22476;-72
2022/11/20 04:33:38;;;;;;;81.60;36.40;;;;;;;-5.77;84.73;98063.91;103031;1298;137383;-72
2022/11/20 04:36:11;;;;;;;77.70;35.70;;;;;;;-5.75;84.69;98064.23;102890;1309;22616;-72
2022/11/20 04:38:39;;;;;;;76.50;34.50;;;;;;;-5.74;84.44;98065.92;102914;1310;137581;-72
2022/11/20 04:41:08;;;;;;;80.50;38.80;;;;;;;-5.80;83.75;98062.91;103031;1294;25285;-72
2022/11/20 04:43:35;;;;;;;81.80;34.90;;;;;;;-5.82;84.30;98061.88;103106;1302;22469;-72
2022/11/20 04:46:02;;;;;;;74.50;35.20;;;;;;;-5.83;84.36;98061.86;103007;1292;137550;-72
2022/11/20 04:48:29;;;;;;;65.40;31.60;;;;;;;-5.87;83.89;98061.88;103145;1293;25376;-72
2022/11/20 04:50:57;;;;;;;73.30;32.90;;;;;;;-5.92;83.19;98057.00;103032;1292;138861;-72
2022/11/20 04:53:24;;;;;;;68.70;30.00;;;;;;;-5.92;83.91;98051.42;103155;1298;22500;-72
2022/11/20 04:55:51;;;;;;;62.60;29.80;;;;;;;-6.02;82.77;98052.30;103110;1303;24222;-72
2022/11/20 04:58:18;;;;;;;63.70;29.80;;;;;;;-6.16;82.66;98047.38;102976;1312;137465;-72
2022/11/20 05:00:44;;;;;;;67.00;29.80;;;;;;;-6.23;83.11;98047.20;102562;1309;22681;-72
2022/11/20 05:03:11;;;;;;;76.20;31.60;;;;;;;-6.26;83.57;98046.41;102943;1294;138103;-72
2022/11/20 05:05:38;;;;;;;69.70;32.70;;;;;;;-6.26;83.83;98048.25;103086;1293;22935;-72
2022/11/20 05:08:05;;;;;;;74.50;33.40;;;;;;;-6.26;83.53;98052.49;103050;1287;22464;-72
2022/11/20 05:10:32;;;;;;;65.40;31.40;;;;;;;-6.24;83.65;98056.20;102942;1290;138070;-72
2022/11/20 05:12:59;;;;;;;72.00;31.70;;;;;;;-6.22;83.38;98058.23;103142;1296;25747;-72
2022/11/20 05:15:25;;;;;;;68.90;33.50;;;;;;;-6.19;83.81;98060.46;102927;1312;137358;-72
2022/11/20 05:17:53;;;;;;;72.80;33.00;;;;;;;-6.19;83.78;98052.81;103012;1309;22625;-72
2022/11/20 05:20:20;;;;;;;72.90;33.10;;;;;;;-6.16;84.32;98049.74;102948;1305;137561;-72
2022/11/20 05:22:47;;;;;;;74.60;33.40;;;;;;;-6.16;84.31;98048.80;103117;1313;23479;-72
2022/11/20 05:25:14;;;;;;;68.40;33.50;;;;;;;-6.16;84.07;98049.89;102868;1303;25393;-71
2022/11/20 05:27:41;;;;;;;64.40;32.60;;;;;;;-6.15;84.09;98048.02;102838;1312;139761;-72
2022/11/20 05:30:09;;;;;;;66.90;32.70;;;;;;;-6.12;84.33;98047.70;102875;1312;22911;-72
2022/11/20 05:32:35;;;;;;;68.10;31.20;;;;;;;-6.09;84.34;98045.30;102997;1294;137406;-72
2022/11/20 05:35:03;;;;;;;71.20;33.00;;;;;;;-6.04;84.79;98041.50;102993;1313;24439;-72
2022/11/20 05:37:29;;;;;;;67.70;33.00;;;;;;;-6.00;85.04;98042.01;103034;1313;22482;-72
2022/11/20 05:39:56;;;;;;;69.10;34.40;;;;;;;-6.00;84.49;98044.60;102864;1313;137496;-72
2022/11/20 05:42:33;;;;;;;72.30;34.50;;;;;;;-6.00;84.36;98042.51;102993;1295;23975;-72
2022/11/20 05:45:02;;;;;;;72.90;33.90;;;;;;;-5.97;84.60;98042.86;102112;1313;1188544;-72
2022/11/20 05:47:31;;;;;;;;;;;;;;;-5.92;84.87;98040.27;103057;1287;22461;-72
2022/11/20 05:49:58;;;;;;;64.30;29.30;;;;;;;-5.94;83.85;98039.04;102906;1294;25312;-72
2022/11/20 05:52:29;;;;;;;61.80;27.80;;;;;;;-6.00;84.09;98036.82;102564;1313;137481;-72
2022/11/20 05:54:56;;;;;;;59.90;28.40;;;;;;;-6.06;83.45;98033.05;102989;1306;22971;-72
2022/11/20 05:57:23;;;;;;;63.50;28.90;;;;;;;-6.11;83.81;98029.47;102661;1299;137562;-72
2022/11/20 05:59:50;;;;;;;57.90;29.20;;;;;;;-6.13;84.13;98029.45;102988;1294;22526;-72
2022/11/20 06:02:17;;;;;;;65.40;29.90;;;;;;;-6.15;84.32;98026.42;102779;1305;138252;-72
2022/11/20 06:04:45;;;;;;;66.50;30.10;;;;;;;-6.14;84.23;98030.30;103111;1289;22464;-72
2022/11/20 06:07:12;;;;;;;70.60;30.30;;;;;;;-6.10;84.37;98036.24;103097;1298;25333;-72
2022/11/20 06:09:39;;;;;;;65.40;29.70;;;;;;;-6.08;84.08;98032.18;102917;1290;139301;-72
2022/11/20 06:12:06;;;;;;;73.00;32.00;;;;;;;-6.06;84.33;98031.05;103201;1303;24035;-72
2022/11/20 06:14:34;;;;;;;69.70;31.50;;;;;;;-6.03;84.23;98031.15;103060;1312;137490;-73
2022/11/20 06:17:01;;;;;;;71.60;35.00;;;;;;;-6.03;84.21;98029.70;103045;1304;22493;-72
2022/11/20 06:19:27;;;;;;;76.90;36.10;;;;;;;-6.01;84.10;98032.52;103026;1313;22610;-72
2022/11/20 06:21:54;;;;;;;71.40;32.80;;;;;;;-5.99;84.37;98031.27;102901;1303;137493;-72
2022/11/20 06:24:21;;;;;;;64.30;30.80;;;;;;;-5.97;83.84;98030.40;103024;1289;25473;-72
2022/11/20 06:26:48;;;;;;;66.50;30.30;;;;;;;-5.95;84.17;98035.67;102873;1299;137450;-72
2022/11/20 06:29:15;;;;;;;61.30;30.00;;;;;;;-5.93;84.42;98037.94;103020;1301;25669;-72
2022/11/20 06:31:42;;;;;;;73.00;32.50;;;;;;;-5.93;84.33;98032.54;102880;1304;22969;-72
2022/11/20 06:34:09;;;;;;;57.90;26.30;;;;;;;-5.95;83.97;98028.88;103001;1288;137432;-72
2022/11/20 06:36:36;;;;;;;74.90;34.90;;;;;;;-5.98;83.54;98027.64;102987;1291;22489;-72
2022/11/20 06:39:04;;;;;;;68.30;34.50;;;;;;;-6.01;83.50;98033.09;102825;1299;137813;-72
2022/11/20 06:41:31;;;;;;;62.80;29.60;;;;;;;-6.00;83.64;98023.97;103083;1297;22478;-72
2022/11/20 06:43:57;;;;;;;66.50;28.50;;;;;;;-5.96;83.95;98021.78;102907;1306;23517;-72
2022/11/20 06:46:24;;;;;;;61.50;28.80;;;;;;;-5.91;84.31;98022.89;102859;1298;137385;-72
2022/11/20 06:48:51;;;;;;;64.80;28.90;;;;;;;-5.90;83.86;98016.63;103043;1292;25450;-72
2022/11/20 06:51:18;;;;;;;58.90;28.20;;;;;;;-5.94;84.13;98013.45;102985;1289;138043;-72
2022/11/20 06:53:45;;;;;;;62.70;29.70;;;;;;;-5.90;84.54;98012.52;103119;1295;26178;-72
2022/11/20 06:56:12;;;;;;;62.80;30.20;;;;;;;-5.84;84.68;98010.55;103073;1289;22476;-72
2022/11/20 06:58:39;;;;;;;60.40;29.50;;;;;;;-5.76;84.63;98012.20;103209;1290;137989;-72
2022/11/20 07:01:10;;;;;;;59.00;27.00;;;;;;;-5.68;84.79;98015.66;103049;1288;25440;-72
2022/11/20 07:03:38;;;;;;;61.10;28.20;;;;;;;-5.62;84.69;98017.70;103367;1290;137289;-73
2022/11/20 07:06:05;;;;;;;63.00;28.30;;;;;;;-5.57;84.97;98019.08;104142;1290;22618;-73
2022/11/20 07:08:32;;;;;;;65.00;27.50;;;;;;;-5.54;84.63;98013.31;103639;1291;137584;-73
2022/11/20 07:11:01;;;;;;;66.90;30.80;;;;;;;-5.53;84.54;98008.45;103175;1292;23872;-73
2022/11/20 07:13:29;;;;;;;73.80;33.40;;;;;;;-5.50;84.55;98009.34;103563;1290;22931;-73
2022/11/20 07:16:01;;;;;;;71.50;30.20;;;;;;;-5.49;84.38;98013.02;103136;1289;138762;-72
2022/11/20 07:18:28;;;;;;;61.90;28.20;;;;;;;-5.52;84.27;98017.02;103532;1288;24327;-73
2022/11/20 07:20:55;;;;;;;62.80;30.50;;;;;;;-5.57;84.34;98019.84;103039;1294;138885;-72
2022/11/20 07:23:22;;;;;;;74.70;30.90;;;;;;;-5.56;84.64;98022.19;103167;1289;22486;-72
2022/11/20 07:25:49;;;;;;;68.50;31.40;;;;;;;-5.51;85.34;98023.32;103254;1288;24320;-72
2022/11/20 07:28:16;;;;;;;71.00;32.80;;;;;;;-5.43;85.47;98017.94;102720;1289;137543;-72
2022/11/20 07:30:49;;;;;;;71.80;34.50;;;;;;;-5.34;85.68;98023.05;102865;1296;25355;-72
2022/11/20 07:33:16;;;;;;;69.30;31.70;;;;;;;-5.22;85.74;98021.64;103044;1290;137568;-72
2022/11/20 07:35:43;;;;;;;72.30;31.90;;;;;;;-5.07;86.06;98021.16;103048;1297;22474;-73
2022/11/20 07:38:10;;;;;;;68.20;32.80;;;;;;;-4.94;85.89;98017.94;103223;1287;24249;-73
2022/11/20 07:40:37;;;;;;;74.20;34.50;;;;;;;-4.80;86.32;98021.27;102737;1291;138554;-73
2022/11/20 07:43:04;;;;;;;80.40;36.60;;;;;;;-4.69;85.76;98028.13;102948;1294;22477;-72
2022/11/20 07:45:31;;;;;;;80.70;35.10;;;;;;;-4.60;86.17;98032.35;102837;1292;137967;-72
2022/11/20 07:47:58;;;;;;;77.40;37.10;;;;;;;-4.49;86.39;98038.63;102961;1306;22889;-72
2022/11/20 07:50:25;;;;;;;88.90;39.50;;;;;;;-4.38;86.27;98039.95;102832;1297;138482;-73
2022/11/20 07:52:52;;;;;;;85.40;37.40;;;;;;;-4.27;86.13;98036.31;102711;1307;22507;-72
2022/11/20 07:55:19;;;;;;;89.50;39.20;;;;;;;-4.15;86.42;98039.39;102764;1289;22492;-72
2022/11/20 07:57:46;;;;;;;84.60;39.10;;;;;;;-4.07;86.08;98035.15;102836;1312;137228;-73
2022/11/20 08:00:13;;;;;;;96.20;41.10;;;;;;;-4.03;85.89;98039.31;102782;1312;25337;-72
2022/11/20 08:02:41;;;;;;;97.70;43.80;;;;;;;-3.99;85.93;98039.72;102884;1298;137480;-72
2022/11/20 08:05:09;;;;;;;94.20;44.20;;;;;;;-3.93;85.67;98040.14;103027;1291;22482;-73
2022/11/20 08:07:41;;;;;;;95.70;44.80;;;;;;;-3.89;85.52;98041.90;102973;1287;22530;-73
2022/11/20 08:10:10;;;;;;;98.50;47.40;;;;;;;-3.83;85.53;98041.95;102873;1288;138840;-72
2022/11/20 08:15:35;;;;;;;102.60;49.00;;;;;;;-3.77;85.14;98040.27;102862;1304;139019;-72
2022/11/20 08:18:13;;;;;;;106.30;49.50;;;;;;;-3.73;85.34;98043.59;103611;1298;22577;-73
2022/11/20 08:20:40;;;;;;;103.90;48.80;;;;;;;-3.69;85.08;98041.71;102917;1290;137648;-72
2022/11/20 08:23:07;;;;;;;95.50;47.50;;;;;;;-3.68;84.80;98041.09;104174;1298;22213;-72
2022/11/20 08:25:36;;;;;;;89.60;43.30;;;;;;;-3.66;84.72;98036.41;105340;1304;22465;-72
2022/11/20 08:28:07;;;;;;;96.90;43.40;;;;;;;-3.62;85.49;98037.06;102952;1291;137267;-72
2022/11/20 08:30:34;;;;;;;99.90;46.80;;;;;;;-3.56;85.43;98032.34;102849;1314;22485;-72
2022/11/20 08:33:04;;;;;;;101.80;46.90;;;;;;;-3.53;85.03;98037.16;102884;1313;137582;-72
2022/11/20 08:35:38;;;;;;;103.80;45.70;;;;;;;-3.53;85.21;98031.61;102996;1313;22662;-72
2022/11/20 08:38:05;;;;;;;111.40;48.50;;;;;;;-3.54;85.23;98030.67;102910;1305;23358;-72
2022/11/20 08:40:33;;;;;;;103.20;46.20;;;;;;;-3.51;85.20;98029.11;102791;1291;138134;-72
2022/11/20 08:43:00;;;;;;;105.40;46.00;;;;;;;-3.46;85.76;98029.35;102871;1291;22540;-72
2022/11/20 08:45:27;;;;;;;95.20;41.80;;;;;;;-3.39;85.97;98024.13;102764;1304;137411;-72
2022/11/20 08:48:00;;;;;;;92.70;43.60;;;;;;;-3.34;85.75;98027.67;102882;1291;25425;-72
2022/11/20 08:50:27;;;;;;;102.00;47.90;;;;;;;-3.32;85.48;98024.92;102744;1289;137407;-72
2022/11/20 08:52:54;;;;;;;106.50;46.20;;;;;;;-3.28;85.38;98018.42;102942;1313;25319;-72
2022/11/20 08:55:20;;;;;;;97.60;46.90;;;;;;;-3.24;85.27;98015.60;102660;1301;22489;-72
2022/11/20 08:57:47;;;;;;;95.40;43.30;;;;;;;-3.24;84.93;98012.16;102756;1293;137575;-72
2022/11/20 09:00:15;;;;;;;87.80;41.40;;;;;;;-3.21;84.91;98009.40;102749;1301;25267;-72
2022/11/20 09:02:42;;;;;;;94.50;43.30;;;;;;;-3.16;85.05;98007.39;102802;1297;137434;-72
2022/11/20 09:05:09;;;;;;;93.60;41.70;;;;;;;-3.12;85.18;98006.59;102726;1290;23331;-72
2022/11/20 09:07:35;;;;;;;85.60;42.40;;;;;;;-3.13;84.43;98010.41;102834;1304;22477;-72
2022/11/20 09:10:03;;;;;;;101.70;46.30;;;;;;;-3.16;84.67;98010.26;102748;1298;137216;-72
2022/11/20 09:12:30;;;;;;;96.50;44.90;;;;;;;-3.16;84.69;98007.73;102904;1287;23807;-72
2022/11/20 09:14:57;;;;;;;98.10;44.20;;;;;;;-3.08;85.30;98003.15;102801;1281;138035;-72
2022/11/20 09:17:24;;;;;;;92.80;42.50;;;;;;;-2.94;85.72;98002.55;102878;1289;25457;-72
2022/11/20 09:19:50;;;;;;;96.90;42.10;;;;;;;-2.81;85.89;97999.83;102934;1288;25340;-72
2022/11/20 09:22:17;;;;;;;86.40;41.20;;;;;;;-2.71;85.42;98001.13;102806;1289;137250;-72
2022/11/20 09:24:44;;;;;;;96.60;42.70;;;;;;;-2.66;84.66;98002.20;102761;1304;23905;-72
2022/11/20 09:27:11;;;;;;;94.40;42.40;;;;;;;-2.59;85.25;98002.96;102807;1294;137266;-72
2022/11/20 09:29:38;;;;;;;84.10;41.60;;;;;;;-2.48;85.74;97999.20;102864;1297;25371;-72
2022/11/20 09:32:05;;;;;;;96.80;44.30;;;;;;;-2.35;85.54;98003.59;102864;1288;22537;-72
2022/11/20 09:34:32;;;;;;;90.20;43.20;;;;;;;-2.23;85.65;97999.92;102814;1289;137249;-72
2022/11/20 09:36:59;;;;;;;96.10;43.20;;;;;;;-2.11;85.62;98006.52;102858;1312;25350;-72
2022/11/20 09:39:26;;;;;;;97.20;44.60;;;;;;;-2.00;85.63;98006.20;102928;1303;137714;-72
2022/11/20 09:42:03;;;;;;;87.80;42.10;;;;;;;-1.91;85.52;98008.38;102919;1291;22749;-72
2022/11/20 09:44:41;;;;;;;97.60;44.40;;;;;;;-1.84;85.17;98011.07;103031;1291;137420;-72
2022/11/20 09:47:40;;;;;;;87.10;41.60;;;;;;;-1.78;84.50;98012.16;102928;1290;25214;-73
2022/11/20 09:50:36;;;;;;;87.90;39.30;;;;;;;-1.77;83.73;98009.88;102878;1290;24317;-72
2022/11/20 09:53:37;;;;;;;89.90;39.60;;;;;;;-1.77;83.63;98003.38;102985;1288;22472;-73
2022/11/20 09:56:04;;;;;;;84.10;37.80;;;;;;;-1.75;84.09;97999.23;103031;1302;22524;-73
2022/11/20 09:58:38;;;;;;;113.50;50.00;;;;;;;-1.68;84.46;97995.04;102912;1288;137250;-73
2022/11/20 10:01:17;;;;;;;110.60;50.10;;;;;;;-1.67;84.12;97994.17;102938;1312;22490;-73
2022/11/20 10:04:10;;;;;;;104.10;47.20;;;;;;;-1.64;84.23;97992.45;102900;1290;138321;-73
2022/11/20 10:07:04;;;;;;;91.90;43.80;;;;;;;-1.59;84.37;97995.01;102913;1287;22474;-73
2022/11/20 10:09:36;;;;;;;99.80;43.70;;;;;;;-1.49;84.57;98000.30;101854;1312;137684;-73
2022/11/20 10:12:24;;;;;;;93.70;42.30;;;;;;;-1.38;84.80;98005.38;102232;1296;22512;-73
2022/11/20 10:14:56;;;;;;;122.10;55.10;;;;;;;-1.24;85.44;98001.15;101865;1303;137502;-73
2022/11/20 10:17:29;;;;;;;103.80;50.30;;;;;;;-1.15;85.08;98003.48;101973;1296;22498;-73
2022/11/20 10:20:32;;;;;;;112.40;51.10;;;;;;;-1.11;84.38;98000.60;102155;1295;24311;-73
2022/11/20 10:23:08;;;;;;;107.30;49.80;;;;;;;-1.10;84.25;98005.13;102249;1295;25233;-73
2022/11/20 10:25:43;;;;;;;113.30;53.10;;;;;;;-1.09;84.14;98005.89;102293;1295;22493;-73
2022/11/20 10:28:23;;;;;;;102.50;46.70;;;;;;;-1.05;84.15;98001.67;102170;1310;138031;-73
2022/11/20 10:30:56;;;;;;;;;;;;;;;-1.06;83.47;97995.44;102219;1296;23870;-73
2022/11/20 10:33:25;;;;;;;97.60;45.00;;;;;;;-1.05;83.78;97997.63;102172;1311;123379;-73
2022/11/20 10:35:59;;;;;;;;;;;;;;;-1.03;83.74;97995.78;102285;1287;25473;-73
2022/11/20 10:38:42;;;;;;;95.10;42.50;;;;;;;-1.00;83.84;97997.05;102328;1291;22485;-73
2022/11/20 10:41:26;;;;;;;95.50;43.60;;;;;;;-1.02;83.69;97987.25;102138;1313;22552;-73
2022/11/20 10:47:18;;;;;;;120.50;54.30;;;;;;;-0.94;83.81;97977.08;102545;1312;22532;-74
2022/11/20 10:49:53;;;;;;;93.90;43.10;;;;;;;-0.88;83.50;97972.61;102984;1304;22488;-74
2022/11/20 10:52:49;;;;;;;88.10;40.90;;;;;;;-0.82;83.53;97964.19;103211;1289;137214;-73
2022/11/20 10:55:38;;;;;;;91.60;41.60;;;;;;;-0.75;83.27;97960.93;102948;1301;26494;-74
2022/11/20 10:58:14;;;;;;;85.20;42.40;;;;;;;-0.69;83.29;97957.88;102974;1301;137245;-74
2022/11/20 11:00:42;;;;;;;96.70;43.40;;;;;;;-0.62;83.13;97959.27;102916;1302;22470;-72
2022/11/20 11:03:32;;;;;;;86.50;40.20;;;;;;;-0.51;83.14;97955.94;102921;1305;138333;-74
2022/11/20 11:06:22;;;;;;;101.60;47.40;;;;;;;-0.36;82.70;97946.88;102908;1312;22504;-73
2022/11/20 11:08:53;;;;;;;99.60;45.00;;;;;;;-0.27;82.48;97941.83;102793;1312;137590;-74
2022/11/20 11:11:27;;;;;;;86.50;41.90;;;;;;;-0.20;81.66;97943.02;102984;1311;22483;-74
2022/11/20 11:14:24;;;;;;;78.10;40.50;;;;;;;-0.20;81.48;97939.45;103156;1289;23932;-74
2022/11/20 11:16:54;;;;;;;88.30;42.80;;;;;;;-0.27;81.06;97933.17;102450;1301;137584;-74
2022/11/20 11:19:21;;;;;;;86.40;40.80;;;;;;;-0.28;81.35;97930.56;102500;1316;22600;-74
2022/11/20 11:21:56;;;;;;;91.60;41.80;;;;;;;-0.30;81.19;97920.50;102385;1302;137692;-74
2022/11/20 11:24:28;;;;;;;83.90;40.30;;;;;;;-0.25;81.97;97918.64;102456;1302;24351;-74
2022/11/20 11:27:03;;;;;;;81.90;38.90;;;;;;;-0.18;81.84;97919.52;102477;1304;138090;-74